Terminal Aerodrome Forecast
Issued by NWS

Home | Current Version | Previous Version | Text Only | Print | Product List | Glossary On
Versions: 1 2 3 4 5 6 7 8 9 10 11 12 13 14 15 16 17 18 19 20 21 22 23 24 25 26 27 28 29 30 31 32 33 34 35 36 37 38 39 40 41 42 43 44 45
000
FTAK31 PAFA 020712 AAC
TAFAFA
TAF AMD
PAFA 020712Z 0207/0312 04003KT P6SM VCSH FEW020 BKN050 OVC100
     FM021200 VRB03KT P6SM VCSH BKN015 OVC050
     FM022000 05005KT P6SM SCT015 BKN050 OVC100=

USA.gov is the U.S. government's official web portal to all federal, state and local government web resources and services.